Terminal Aerodrome Forecast
Issued by NWS

Home | Current Version | Previous Version | Text Only | Print | Product List | Glossary On
Versions: 1 2 3 4 5 6 7 8 9 10 11 12 13 14 15 16 17 18 19 20 21 22 23 24 25 26 27
000
FTUS46 KMTR 282102 AAA
TAFSFO
TAF AMD
KSFO 282102Z 2821/2924 28024G32KT P6SM FEW015
     FM290400 28015G22KT P6SM FEW015
     FM290800 28011KT P6SM BKN015
     FM291500 27010KT P6SM SCT015
     FM291800 28018KT P6SM FEW015
     FM292100 27022KT P6SM SCT200=

USA.gov is the U.S. government's official web portal to all federal, state and local government web resources and services.